Relevés horaires Koksijde (Belgique)


Relevés horaires à Koksijde - Mardi 30 Mai 2023
Heure UTC1 Température [°C] Vent [km/h] Hum. [%] Pres.4 [hPa] Visi. [Km] Nébu. [octa] Préc.5 [mm] Cond.
2m. Res. Ros. Dir.2 Vit. Moy. Raf.3
23:00 12.3 11.5 10.2 NE 9.3 -- 18.5 87 1026.4(-0.1/3h) 20 -- -- --
22:00 12.3 11 10.0 NNE 13.0 -- 20.4 86 1026.4(-0.1/3h) 20 7/8 -- --
21:00 12.3 11 9.7 NNE 13.0 -- 22.2 84 1026.4(-0.2/3h) 20 7/8 -- --
20:00 12.5 11.2 9.6 NNE 13.0 -- 20.4 82 1026.5(-0.3/3h) 20 7/8 -- --
19:00 12.6 11.1 9.0 NNE 14.8 -- 18.5 79 1026.5(-0.6/3h) 20 7/8 -- --
18:00 12.3 10.8 8.4 N 14.8 -- 25.9 77 1026.5(-0.7/3h) 20 -- -- --
17:00 12.9 11.3 9.2 NNE 16.7 -- 22.2 78 1026.9(-0.6/3h) 20 7/8 -- --
16:00 13.2 11.7 9.3 NNE 16.7 -- 22.2 77 1027.2(-0.7/3h) 20 7/8 -- --
15:00 13.5 11.9 9.6 N 18.5 -- 25.9 77 1027.4(-0.4/3h) 20 7/8 -- --
14:00 14.3 13.2 9.8 NNE 14.8 -- 25.9 74 1027.5(-0.5/3h) 20 6/8 -- --
13:00 14.7 13.6 9.2 N 16.7 -- 24.1 70 1027.7(-0.2/3h) 20 6/8 -- --
12:00 14.7 13.6 8.8 N 16.7 -- 24.1 68 1027.9(-0.3/3h) 20 3/8 -- --
11:00 14.6 13.4 8.6 NNE 16.7 -- 24.1 67 1028.2(-0.2/3h) 20 4/8 -- --
10:00 14.1 12.8 8.4 NE 16.7 -- 24.1 69 1028(-0.2/3h) 20 6/8 -- --
09:00 13.6 12.4 7.9 NE 14.8 -- 22.2 68 1028.2(0.0/3h) 20 6/8 -- --
08:00 12.6 11.1 7.7 NE 14.8 -- 20.4 72 1028.4(0.5/3h) 20 6/8 -- --
07:00 11.9 10.7 7.5 NE 11.1 -- 18.5 74 1028.4(0.8/3h) 20 4/8 -- --
06:00 11.6 10.7 7.3 NE 9.3 -- 18.5 75 1028.2(0.9/3h) 20 4/8 -- --
05:00 9.6 9.1 7.2 ENE 5.6 -- 11.1 85 1027.9(0.8/3h) 17 -- -- --
04:00 9.3 8.3 7.1 ENE 7.4 -- 13.0 86 1027.5(0.5/3h) 18 -- -- --
03:00 10.1 9.3 7.3 NE 7.4 -- 18.5 83 1027.2(0.2/3h) 19 -- -- --
02:00 10.4 8.9 7.0 NE 11.1 -- 18.5 79 1027(0.4/3h) 19 -- -- --
01:00 10.7 9.3 7.4 NE 11.1 -- 18.5 80 1026.9(0.2/3h) 18 -- -- --
00:00 11.4 9.9 8.1 NE 13.0 -- 27.8 80 1027(0.4/3h) 17 -- -- --

1 Coordinated Universal Time. Actuellement il est 18:00 locale et 16:00 UTC.

2 Le vent souffle depuis la direction indiquée vers la direction oposée.

3 Les rafales max. sont disponible 40 min après l'heure du relevé.

4 Pour les stations d'altitude (plus de 600m) le géopotentiel du niveau le plus proche de la pression obligatoire est indiqué.

5 Les stations disposant d'un diffuseur peuvent indiquer "trace". Cela signifie que des précipitations ont touchés le sol mais que la quantité est inférieure à 0.1 mm.

Récapitulatif de la journée
Température [°C] Vent [km/h] Ensoleillement4 [h] Precipitations totale5 [mm] Pression [Hpa]
Min1 Max.2 Moy.3 Max. Min Max.
9.1 15.4 0 27.8 0 h 0 min 0 1026.4 1028.4

1 Température minimale relevée entre 18:00 UTC la veille et 18:00 UTC le jour donné.

2 Température maximale relevée entre 06:00 UTC le jour donné et 06:00 UTC le lendemain.

3 Vent moyen de la journée basé sur les relevés horaires.

4 Ensoleillement en heures relevé entre 06:00 UTC la veille et 06:00 UTC le jour donné.

5 Précipitations totales tombées entre 06:00 UTC la jour donné et 06:00 UTC le lendemain.

Graphiques horaires